Meteoliendo - El tiempo en Liendo - Informes METAR de Aeropuertos cercanos

Informes METAR de Aeropuertos cercanos

 

LEXJ - Santander
Actualización: 16/12/2018 13:00
Parcialmente nuboso
Parcialmente nuboso
 Viento del SO
Viento: SO 7 km/h
Temperatura: 14°C
Rocío: 10°C
Humedad: 77%
Barómetro: 1014 hPa
Clouds: Parcialmente nuboso
Visibility: 10 km
Cloud details: Parcialmente nuboso 2286 m
2018/12/16 12:00 LEXJ 161200Z 22004KT 160V250 9999 SCT075 14/10 Q1014
LEAS - Asturias/Aviles
Actualización: 16/12/2018 13:00
Muy nuboso
Muy nuboso
 Viento del OSO
Viento: OSO 24 km/h
Temperatura: 13°C
Rocío: 6°C
Humedad: 63%
Barómetro: 1015 hPa
Clouds: Muy nuboso
Visibility: 10 km
Cloud details: Parcialmente nuboso 1372 m
Parcialmente nuboso 1829 m
Muy nuboso 2438 m
2018/12/16 12:00 LEAS 161200Z 24013KT 210V280 9999 SCT045 SCT060 BKN080 13/06 Q1015 TEMPO SHRA SCT030TCU
LEBB - Bilbao
Actualización: 16/12/2018 13:00
Muy nuboso
Muy nuboso
 Viento del varies
Viento: varies 4 km/h
Temperatura: 12°C
Rocío: 11°C
Humedad: 94%
Barómetro: 1015 hPa
Clouds: Muy nuboso
Visibility: 10 km
Cloud details: Few Clouds 610 m
Muy nuboso 914 m
2018/12/16 12:00 LEBB 161200Z VRB02KT 9999 FEW020 BKN030 12/11 Q1015 NOSIG
 
LEBG - Burgos/Villafría
Actualización: 16/12/2018 13:00
Parcialmente nuboso
Parcialmente nuboso
 Viento del OSO
Viento: OSO 39 km/h
Temperatura: 10°C
Wind Chill: 6°C
Rocío: 5°C
Humedad: 71%
Barómetro: 1016 hPa
Clouds: Parcialmente nuboso
Visibility: 10 km
Cloud details: Parcialmente nuboso 549 m
2018/12/16 12:00 LEBG 161200Z 24021KT 220V280 9999 SCT018 10/05 Q1016
LELO - Logroño
Actualización: 16/12/2018 13:00
Parcialmente nuboso
Parcialmente nuboso
 Viento del S
Viento: S 7 km/h
Temperatura: 10°C
Wind Chill: 9°C
Rocío: 9°C
Humedad: 94%
Barómetro: 1015 hPa
Clouds: Parcialmente nuboso
Visibility: 10 km
Cloud details: Few Clouds 183 m
Parcialmente nuboso 1829 m
2018/12/16 12:00 LELO 161200Z 17004KT 120V210 9999 FEW006 SCT060 10/09 Q1015
LEPP - Pamplona
Actualización: 16/12/2018 13:00
Lluvia débil, Parcialmente nuboso
Lluvia débil, Parcialmente nuboso
 Viento del SE
Viento: SE 9 km/h
Temperatura: 11°C
Rocío: 9°C
Humedad: 88%
Barómetro: 1014 hPa
Resumen: Lluvia débil
Clouds: Parcialmente nuboso
Visibility: 10 km
Cloud details: Parcialmente nuboso 549 m
Parcialmente nuboso 1097 m
2018/12/16 12:00 LEPP 161200Z 13005KT 9999 -RA SCT018 SCT036 11/09 Q1014
 
LESO - San Sebastián
Actualización: 16/12/2018 13:00
Cubierto
Cubierto
 Viento del N
Viento: N 6 km/h
Temperatura: 12°C
Rocío: 10°C
Humedad: 88%
Barómetro: 1014 hPa
Clouds: Cubierto
Visibility: 10 km
Cloud details: Muy nuboso 213 m
Cubierto 305 m
2018/12/16 12:00 LESO 161200Z 36003KT 320V070 9999 BKN007 OVC010 12/10 Q1014
LEST - Santiago de Compostela
Actualización: 16/12/2018 13:00
Lluvia débil, Showers, Parcialmente nuboso
Lluvia débil, Showers, Parcialmente nuboso
 Viento del varies
Viento: varies 15 km/h
Temperatura: 9°C
Wind Chill: 7°C
Rocío: 7°C
Humedad: 87%
Barómetro: 1019 hPa
Resumen: Lluvia débil, Showers
Clouds: Parcialmente nuboso
Visibility: 10 km
Cloud details: Few Clouds 366 m
Muy nuboso 610 m
Parcialmente nuboso 914 m
2018/12/16 12:00 LEST 161200Z VRB08KT 9999 -SHRA FEW012 BKN020 SCT030TCU 09/07 Q1019 TEMPO 3000 SHRA
LEVT - Vitoria
Actualización: 16/12/2018 13:00
Parcialmente nuboso
Parcialmente nuboso
 Viento del OSO
Viento: OSO 17 km/h
Temperatura: 13°C
Rocío: 9°C
Humedad: 77%
Barómetro: 1014 hPa
Clouds: Parcialmente nuboso
Visibility: 10 km
Cloud details: Parcialmente nuboso 1067 m
2018/12/16 12:00 LEVT 161200Z 24009KT 210V280 9999 SCT035 13/09 Q1014